sensor_id;sensor_type;location;lat;lon;timestamp;temperature;humidity
22069;DHT22;13887;57.196;-2.100;2023-02-01T00:00:30;5.37;75.11
22069;DHT22;13887;57.196;-2.100;2023-02-01T00:03:00;5.35;74.86
22069;DHT22;13887;57.196;-2.100;2023-02-01T00:05:27;5.36;74.41
22069;DHT22;13887;57.196;-2.100;2023-02-01T00:07:54;5.36;73.98
22069;DHT22;13887;57.196;-2.100;2023-02-01T00:10:21;5.37;74.16
22069;DHT22;13887;57.196;-2.100;2023-02-01T00:12:48;5.38;73.87
22069;DHT22;13887;57.196;-2.100;2023-02-01T00:15:15;5.40;73.54
22069;DHT22;13887;57.196;-2.100;2023-02-01T00:17:42;5.45;73.25
22069;DHT22;13887;57.196;-2.100;2023-02-01T00:20:10;5.47;73.83
22069;DHT22;13887;57.196;-2.100;2023-02-01T00:22:37;5.43;74.16
22069;DHT22;13887;57.196;-2.100;2023-02-01T00:25:04;5.40;74.85
22069;DHT22;13887;57.196;-2.100;2023-02-01T00:27:31;5.41;75.04
22069;DHT22;13887;57.196;-2.100;2023-02-01T00:29:58;5.37;75.36
22069;DHT22;13887;57.196;-2.100;2023-02-01T00:32:25;5.37;75.79
22069;DHT22;13887;57.196;-2.100;2023-02-01T00:34:52;5.35;75.62
22069;DHT22;13887;57.196;-2.100;2023-02-01T00:37:19;5.35;75.80
22069;DHT22;13887;57.196;-2.100;2023-02-01T00:39:47;5.36;76.63
22069;DHT22;13887;57.196;-2.100;2023-02-01T00:42:14;5.39;76.41
22069;DHT22;13887;57.196;-2.100;2023-02-01T00:44:40;5.34;77.05
22069;DHT22;13887;57.196;-2.100;2023-02-01T00:47:07;5.36;76.91
22069;DHT22;13887;57.196;-2.100;2023-02-01T00:49:34;5.36;76.95
22069;DHT22;13887;57.196;-2.100;2023-02-01T00:52:01;5.35;77.47
22069;DHT22;13887;57.196;-2.100;2023-02-01T00:54:28;5.35;77.31
22069;DHT22;13887;57.196;-2.100;2023-02-01T00:56:55;5.34;77.46
22069;DHT22;13887;57.196;-2.100;2023-02-01T00:59:22;5.34;77.07
22069;DHT22;13887;57.196;-2.100;2023-02-01T01:01:49;5.34;76.60
22069;DHT22;13887;57.196;-2.100;2023-02-01T01:04:16;5.34;76.63
22069;DHT22;13887;57.196;-2.100;2023-02-01T01:06:43;5.32;76.27
22069;DHT22;13887;57.196;-2.100;2023-02-01T01:09:11;5.32;76.62
22069;DHT22;13887;57.196;-2.100;2023-02-01T01:11:38;5.31;76.59
22069;DHT22;13887;57.196;-2.100;2023-02-01T01:14:06;5.32;76.99
22069;DHT22;13887;57.196;-2.100;2023-02-01T01:16:35;5.28;77.11
22069;DHT22;13887;57.196;-2.100;2023-02-01T01:19:02;5.34;77.44
22069;DHT22;13887;57.196;-2.100;2023-02-01T01:21:29;5.31;77.47
22069;DHT22;13887;57.196;-2.100;2023-02-01T01:23:57;5.34;77.76
22069;DHT22;13887;57.196;-2.100;2023-02-01T01:26:26;5.28;78.32
22069;DHT22;13887;57.196;-2.100;2023-02-01T01:28:55;5.28;78.58
22069;DHT22;13887;57.196;-2.100;2023-02-01T01:31:22;5.31;78.89
22069;DHT22;13887;57.196;-2.100;2023-02-01T01:33:55;5.32;79.00
22069;DHT22;13887;57.196;-2.100;2023-02-01T01:36:23;5.27;79.37
22069;DHT22;13887;57.196;-2.100;2023-02-01T01:38:51;5.31;79.47
22069;DHT22;13887;57.196;-2.100;2023-02-01T01:41:24;5.33;79.64
22069;DHT22;13887;57.196;-2.100;2023-02-01T01:46:37;5.32;79.88
22069;DHT22;13887;57.196;-2.100;2023-02-01T01:49:16;5.32;79.83
22069;DHT22;13887;57.196;-2.100;2023-02-01T01:51:54;5.32;79.91
22069;DHT22;13887;57.196;-2.100;2023-02-01T01:54:32;5.32;80.01
22069;DHT22;13887;57.196;-2.100;2023-02-01T01:57:06;5.31;80.33
22069;DHT22;13887;57.196;-2.100;2023-02-01T01:59:36;5.30;80.49
22069;DHT22;13887;57.196;-2.100;2023-02-01T02:02:05;5.28;80.68
22069;DHT22;13887;57.196;-2.100;2023-02-01T02:04:33;5.26;80.81
22069;DHT22;13887;57.196;-2.100;2023-02-01T02:07:04;5.25;80.99
22069;DHT22;13887;57.196;-2.100;2023-02-01T02:09:32;5.25;81.23
22069;DHT22;13887;57.196;-2.100;2023-02-01T02:11:59;5.28;80.91
22069;DHT22;13887;57.196;-2.100;2023-02-01T02:14:26;5.27;81.27
22069;DHT22;13887;57.196;-2.100;2023-02-01T02:23:12;5.26;81.43
22069;DHT22;13887;57.196;-2.100;2023-02-01T02:31:33;5.17;81.81
22069;DHT22;13887;57.196;-2.100;2023-02-01T02:34:26;5.18;81.89
22069;DHT22;13887;57.196;-2.100;2023-02-01T02:48:22;5.16;82.23
22069;DHT22;13887;57.196;-2.100;2023-02-01T02:51:14;5.18;82.26
22069;DHT22;13887;57.196;-2.100;2023-02-01T02:56:47;5.20;82.05
22069;DHT22;13887;57.196;-2.100;2023-02-01T02:59:35;5.20;82.19
22069;DHT22;13887;57.196;-2.100;2023-02-01T03:02:22;5.22;82.14
22069;DHT22;13887;57.196;-2.100;2023-02-01T03:05:08;5.23;82.05
22069;DHT22;13887;57.196;-2.100;2023-02-01T03:10:38;5.23;82.13
22069;DHT22;13887;57.196;-2.100;2023-02-01T03:19:03;5.25;82.08
22069;DHT22;13887;57.196;-2.100;2023-02-01T03:26:47;5.25;82.20
22069;DHT22;13887;57.196;-2.100;2023-02-01T03:29:19;5.25;82.24
22069;DHT22;13887;57.196;-2.100;2023-02-01T03:31:48;5.25;82.40
22069;DHT22;13887;57.196;-2.100;2023-02-01T03:34:16;5.22;82.17
22069;DHT22;13887;57.196;-2.100;2023-02-01T03:36:50;5.21;82.37
22069;DHT22;13887;57.196;-2.100;2023-02-01T03:39:52;5.13;82.75
22069;DHT22;13887;57.196;-2.100;2023-02-01T03:42:19;5.18;82.74
22069;DHT22;13887;57.196;-2.100;2023-02-01T03:45:27;5.10;82.92
22069;DHT22;13887;57.196;-2.100;2023-02-01T03:47:57;5.11;83.02
22069;DHT22;13887;57.196;-2.100;2023-02-01T03:50:28;5.12;82.97
22069;DHT22;13887;57.196;-2.100;2023-02-01T03:53:04;5.12;83.06
22069;DHT22;13887;57.196;-2.100;2023-02-01T03:55:34;5.11;83.12
22069;DHT22;13887;57.196;-2.100;2023-02-01T03:58:22;5.16;83.11
22069;DHT22;13887;57.196;-2.100;2023-02-01T04:00:54;5.13;83.07
22069;DHT22;13887;57.196;-2.100;2023-02-01T04:03:22;5.11;83.27
22069;DHT22;13887;57.196;-2.100;2023-02-01T04:05:50;5.15;82.93
22069;DHT22;13887;57.196;-2.100;2023-02-01T04:08:19;5.16;83.09
22069;DHT22;13887;57.196;-2.100;2023-02-01T04:10:47;5.12;83.11
22069;DHT22;13887;57.196;-2.100;2023-02-01T04:13:14;5.09;83.30
22069;DHT22;13887;57.196;-2.100;2023-02-01T04:15:41;5.10;83.27
22069;DHT22;13887;57.196;-2.100;2023-02-01T04:18:08;5.10;83.25
22069;DHT22;13887;57.196;-2.100;2023-02-01T04:20:35;5.10;83.29
22069;DHT22;13887;57.196;-2.100;2023-02-01T04:23:02;5.11;83.17
22069;DHT22;13887;57.196;-2.100;2023-02-01T04:25:29;5.10;83.23
22069;DHT22;13887;57.196;-2.100;2023-02-01T04:27:56;5.10;83.15
22069;DHT22;13887;57.196;-2.100;2023-02-01T04:30:23;5.09;82.99
22069;DHT22;13887;57.196;-2.100;2023-02-01T04:32:51;5.08;82.97
22069;DHT22;13887;57.196;-2.100;2023-02-01T04:35:17;5.06;82.78
22069;DHT22;13887;57.196;-2.100;2023-02-01T04:37:44;5.05;82.75
22069;DHT22;13887;57.196;-2.100;2023-02-01T04:40:12;5.06;82.63
22069;DHT22;13887;57.196;-2.100;2023-02-01T04:42:39;5.07;82.58
22069;DHT22;13887;57.196;-2.100;2023-02-01T04:45:06;5.08;82.53
22069;DHT22;13887;57.196;-2.100;2023-02-01T04:47:33;5.07;82.55
22069;DHT22;13887;57.196;-2.100;2023-02-01T04:50:00;5.08;82.32
22069;DHT22;13887;57.196;-2.100;2023-02-01T04:52:27;5.05;82.34
22069;DHT22;13887;57.196;-2.100;2023-02-01T04:54:54;5.08;82.24
22069;DHT22;13887;57.196;-2.100;2023-02-01T04:57:25;5.08;82.16
22069;DHT22;13887;57.196;-2.100;2023-02-01T04:59:52;5.06;82.20
22069;DHT22;13887;57.196;-2.100;2023-02-01T05:02:19;5.07;82.23
22069;DHT22;13887;57.196;-2.100;2023-02-01T05:04:46;5.06;82.39
22069;DHT22;13887;57.196;-2.100;2023-02-01T05:07:13;5.02;82.35
22069;DHT22;13887;57.196;-2.100;2023-02-01T05:09:40;5.04;82.36
22069;DHT22;13887;57.196;-2.100;2023-02-01T05:12:08;5.03;82.42
22069;DHT22;13887;57.196;-2.100;2023-02-01T05:14:54;5.02;82.20
22069;DHT22;13887;57.196;-2.100;2023-02-01T05:17:21;5.02;81.69
22069;DHT22;13887;57.196;-2.100;2023-02-01T05:19:48;5.00;82.08
22069;DHT22;13887;57.196;-2.100;2023-02-01T05:22:15;4.98;81.95
22069;DHT22;13887;57.196;-2.100;2023-02-01T05:24:43;5.02;81.64
22069;DHT22;13887;57.196;-2.100;2023-02-01T05:27:11;5.01;81.34
22069;DHT22;13887;57.196;-2.100;2023-02-01T05:29:38;5.02;81.39
22069;DHT22;13887;57.196;-2.100;2023-02-01T05:32:05;5.03;81.37
22069;DHT22;13887;57.196;-2.100;2023-02-01T05:34:47;5.03;81.17
22069;DHT22;13887;57.196;-2.100;2023-02-01T05:37:14;5.02;80.73
22069;DHT22;13887;57.196;-2.100;2023-02-01T05:39:42;5.01;80.93
22069;DHT22;13887;57.196;-2.100;2023-02-01T05:42:09;5.03;80.94
22069;DHT22;13887;57.196;-2.100;2023-02-01T05:44:36;5.02;80.98
22069;DHT22;13887;57.196;-2.100;2023-02-01T05:47:03;5.00;80.74
22069;DHT22;13887;57.196;-2.100;2023-02-01T05:49:30;5.01;80.69
22069;DHT22;13887;57.196;-2.100;2023-02-01T05:51:57;4.97;80.79
22069;DHT22;13887;57.196;-2.100;2023-02-01T05:54:26;5.01;80.54
22069;DHT22;13887;57.196;-2.100;2023-02-01T05:56:53;5.00;80.78
22069;DHT22;13887;57.196;-2.100;2023-02-01T05:59:20;4.98;80.80
22069;DHT22;13887;57.196;-2.100;2023-02-01T06:01:47;4.97;80.81
22069;DHT22;13887;57.196;-2.100;2023-02-01T06:04:14;4.98;80.75
22069;DHT22;13887;57.196;-2.100;2023-02-01T06:06:41;4.94;80.72
22069;DHT22;13887;57.196;-2.100;2023-02-01T06:09:08;4.97;80.47
22069;DHT22;13887;57.196;-2.100;2023-02-01T06:11:35;5.00;80.36
22069;DHT22;13887;57.196;-2.100;2023-02-01T06:14:02;5.00;80.24
22069;DHT22;13887;57.196;-2.100;2023-02-01T06:16:29;4.98;80.40
22069;DHT22;13887;57.196;-2.100;2023-02-01T06:18:56;5.01;79.98
22069;DHT22;13887;57.196;-2.100;2023-02-01T06:21:22;4.97;80.14
22069;DHT22;13887;57.196;-2.100;2023-02-01T06:23:53;4.95;79.45
22069;DHT22;13887;57.196;-2.100;2023-02-01T06:26:21;4.95;79.67
22069;DHT22;13887;57.196;-2.100;2023-02-01T06:28:49;4.96;79.59
22069;DHT22;13887;57.196;-2.100;2023-02-01T06:31:16;4.98;79.44
22069;DHT22;13887;57.196;-2.100;2023-02-01T06:33:43;4.97;79.75
22069;DHT22;13887;57.196;-2.100;2023-02-01T06:36:10;4.96;79.34
22069;DHT22;13887;57.196;-2.100;2023-02-01T06:38:39;4.95;79.94
22069;DHT22;13887;57.196;-2.100;2023-02-01T06:41:06;4.92;79.81
22069;DHT22;13887;57.196;-2.100;2023-02-01T06:43:33;4.94;79.69
22069;DHT22;13887;57.196;-2.100;2023-02-01T06:46:05;4.93;79.17
22069;DHT22;13887;57.196;-2.100;2023-02-01T06:48:33;4.94;79.32
22069;DHT22;13887;57.196;-2.100;2023-02-01T06:51:01;4.96;79.01
22069;DHT22;13887;57.196;-2.100;2023-02-01T06:53:28;4.95;79.69
22069;DHT22;13887;57.196;-2.100;2023-02-01T06:55:57;4.90;79.43
22069;DHT22;13887;57.196;-2.100;2023-02-01T06:58:31;4.93;78.89
22069;DHT22;13887;57.196;-2.100;2023-02-01T07:01:05;4.92;79.30
22069;DHT22;13887;57.196;-2.100;2023-02-01T07:03:32;4.91;79.20
22069;DHT22;13887;57.196;-2.100;2023-02-01T07:05:59;4.93;78.21
22069;DHT22;13887;57.196;-2.100;2023-02-01T07:08:28;4.93;77.86
22069;DHT22;13887;57.196;-2.100;2023-02-01T07:10:56;4.90;78.30
22069;DHT22;13887;57.196;-2.100;2023-02-01T07:13:24;4.90;77.67
22069;DHT22;13887;57.196;-2.100;2023-02-01T07:15:52;4.92;77.27
22069;DHT22;13887;57.196;-2.100;2023-02-01T07:18:19;4.91;76.48
22069;DHT22;13887;57.196;-2.100;2023-02-01T07:20:50;4.94;76.76
22069;DHT22;13887;57.196;-2.100;2023-02-01T07:23:18;4.95;76.70
22069;DHT22;13887;57.196;-2.100;2023-02-01T07:25:46;4.94;76.86
22069;DHT22;13887;57.196;-2.100;2023-02-01T07:28:13;4.90;76.43
22069;DHT22;13887;57.196;-2.100;2023-02-01T07:30:40;4.93;77.11
22069;DHT22;13887;57.196;-2.100;2023-02-01T07:33:08;4.93;76.99
22069;DHT22;13887;57.196;-2.100;2023-02-01T07:35:35;4.91;76.44
22069;DHT22;13887;57.196;-2.100;2023-02-01T07:38:02;4.90;76.53
22069;DHT22;13887;57.196;-2.100;2023-02-01T07:40:29;4.91;76.54
22069;DHT22;13887;57.196;-2.100;2023-02-01T07:42:57;4.90;76.34
22069;DHT22;13887;57.196;-2.100;2023-02-01T07:45:24;4.91;76.86
22069;DHT22;13887;57.196;-2.100;2023-02-01T07:47:52;4.87;76.46
22069;DHT22;13887;57.196;-2.100;2023-02-01T07:50:20;4.91;76.69
22069;DHT22;13887;57.196;-2.100;2023-02-01T07:52:47;4.88;76.41
22069;DHT22;13887;57.196;-2.100;2023-02-01T07:55:14;4.87;76.82
22069;DHT22;13887;57.196;-2.100;2023-02-01T07:57:41;4.87;76.89
22069;DHT22;13887;57.196;-2.100;2023-02-01T08:00:09;4.90;76.91
22069;DHT22;13887;57.196;-2.100;2023-02-01T08:02:57;4.87;76.39
22069;DHT22;13887;57.196;-2.100;2023-02-01T08:05:25;4.86;76.88
22069;DHT22;13887;57.196;-2.100;2023-02-01T08:07:52;4.74;74.91
22069;DHT22;13887;57.196;-2.100;2023-02-01T08:10:19;4.84;76.13
22069;DHT22;13887;57.196;-2.100;2023-02-01T08:12:47;4.84;76.08
22069;DHT22;13887;57.196;-2.100;2023-02-01T08:15:15;4.84;76.29
22069;DHT22;13887;57.196;-2.100;2023-02-01T08:17:49;4.81;76.20
22069;DHT22;13887;57.196;-2.100;2023-02-01T08:20:18;4.82;77.05
22069;DHT22;13887;57.196;-2.100;2023-02-01T08:22:45;4.83;76.96
22069;DHT22;13887;57.196;-2.100;2023-02-01T08:25:12;4.82;77.24
22069;DHT22;13887;57.196;-2.100;2023-02-01T08:27:39;4.82;77.47
22069;DHT22;13887;57.196;-2.100;2023-02-01T08:30:08;4.81;77.66
22069;DHT22;13887;57.196;-2.100;2023-02-01T08:32:35;4.82;78.23
22069;DHT22;13887;57.196;-2.100;2023-02-01T08:35:03;4.82;77.72
22069;DHT22;13887;57.196;-2.100;2023-02-01T08:37:30;4.79;77.73
22069;DHT22;13887;57.196;-2.100;2023-02-01T08:39:57;4.80;77.41
22069;DHT22;13887;57.196;-2.100;2023-02-01T08:42:24;4.80;77.35
22069;DHT22;13887;57.196;-2.100;2023-02-01T08:45:10;4.79;77.44
22069;DHT22;13887;57.196;-2.100;2023-02-01T08:47:37;4.80;77.47
22069;DHT22;13887;57.196;-2.100;2023-02-01T08:50:05;4.80;77.44
22069;DHT22;13887;57.196;-2.100;2023-02-01T08:52:32;4.80;76.69
22069;DHT22;13887;57.196;-2.100;2023-02-01T08:54:59;4.81;76.46
22069;DHT22;13887;57.196;-2.100;2023-02-01T08:57:25;4.82;76.62
22069;DHT22;13887;57.196;-2.100;2023-02-01T08:59:53;4.83;76.28
22069;DHT22;13887;57.196;-2.100;2023-02-01T09:02:20;4.83;76.07
22069;DHT22;13887;57.196;-2.100;2023-02-01T09:04:47;4.83;76.08
22069;DHT22;13887;57.196;-2.100;2023-02-01T09:07:14;4.84;76.02
22069;DHT22;13887;57.196;-2.100;2023-02-01T09:09:44;4.84;76.10
22069;DHT22;13887;57.196;-2.100;2023-02-01T09:12:11;4.84;75.95
22069;DHT22;13887;57.196;-2.100;2023-02-01T09:14:38;4.84;76.38
22069;DHT22;13887;57.196;-2.100;2023-02-01T09:17:05;4.86;75.85
22069;DHT22;13887;57.196;-2.100;2023-02-01T09:19:32;4.84;75.88
22069;DHT22;13887;57.196;-2.100;2023-02-01T09:21:59;4.87;76.30
22069;DHT22;13887;57.196;-2.100;2023-02-01T09:24:26;4.84;76.68
22069;DHT22;13887;57.196;-2.100;2023-02-01T09:26:54;4.84;75.92
22069;DHT22;13887;57.196;-2.100;2023-02-01T09:29:21;4.89;76.28
22069;DHT22;13887;57.196;-2.100;2023-02-01T09:31:48;4.88;76.63
22069;DHT22;13887;57.196;-2.100;2023-02-01T09:34:29;4.89;76.47
22069;DHT22;13887;57.196;-2.100;2023-02-01T09:36:56;4.88;76.60
22069;DHT22;13887;57.196;-2.100;2023-02-01T09:39:23;4.87;76.41
22069;DHT22;13887;57.196;-2.100;2023-02-01T09:42:02;4.89;76.09
22069;DHT22;13887;57.196;-2.100;2023-02-01T09:44:40;4.90;76.46
22069;DHT22;13887;57.196;-2.100;2023-02-01T09:47:13;4.91;75.93
22069;DHT22;13887;57.196;-2.100;2023-02-01T09:50:04;4.92;75.97
22069;DHT22;13887;57.196;-2.100;2023-02-01T09:52:44;4.93;75.83
22069;DHT22;13887;57.196;-2.100;2023-02-01T09:55:20;4.94;75.87
22069;DHT22;13887;57.196;-2.100;2023-02-01T09:57:51;4.93;75.45
22069;DHT22;13887;57.196;-2.100;2023-02-01T10:00:25;4.93;76.11
22069;DHT22;13887;57.196;-2.100;2023-02-01T10:02:54;4.94;75.63
22069;DHT22;13887;57.196;-2.100;2023-02-01T10:05:44;4.97;75.33
22069;DHT22;13887;57.196;-2.100;2023-02-01T10:11:47;4.98;75.41
22069;DHT22;13887;57.196;-2.100;2023-02-01T10:22:42;5.02;74.54
22069;DHT22;13887;57.196;-2.100;2023-02-01T10:25:44;5.05;74.66
22069;DHT22;13887;57.196;-2.100;2023-02-01T10:28:17;5.04;74.44
22069;DHT22;13887;57.196;-2.100;2023-02-01T10:30:46;5.05;74.38
22069;DHT22;13887;57.196;-2.100;2023-02-01T10:33:24;5.06;74.51
22069;DHT22;13887;57.196;-2.100;2023-02-01T10:35:58;5.07;74.57
22069;DHT22;13887;57.196;-2.100;2023-02-01T10:38:29;5.09;74.22
22069;DHT22;13887;57.196;-2.100;2023-02-01T10:41:02;5.08;74.67
22069;DHT22;13887;57.196;-2.100;2023-02-01T10:43:30;5.10;74.54
22069;DHT22;13887;57.196;-2.100;2023-02-01T10:45:57;5.10;75.20
22069;DHT22;13887;57.196;-2.100;2023-02-01T10:48:24;5.12;74.60
22069;DHT22;13887;57.196;-2.100;2023-02-01T10:50:58;5.12;74.59
22069;DHT22;13887;57.196;-2.100;2023-02-01T10:56:22;5.16;75.39
22069;DHT22;13887;57.196;-2.100;2023-02-01T10:58:52;5.16;75.44
22069;DHT22;13887;57.196;-2.100;2023-02-01T11:01:40;5.16;75.82
22069;DHT22;13887;57.196;-2.100;2023-02-01T11:04:11;5.17;75.78
22069;DHT22;13887;57.196;-2.100;2023-02-01T11:06:42;5.19;75.66
22069;DHT22;13887;57.196;-2.100;2023-02-01T11:09:20;5.21;75.41
22069;DHT22;13887;57.196;-2.100;2023-02-01T11:17:32;5.22;75.83
22069;DHT22;13887;57.196;-2.100;2023-02-01T11:20:02;5.21;76.29
22069;DHT22;13887;57.196;-2.100;2023-02-01T11:22:31;5.23;75.98
22069;DHT22;13887;57.196;-2.100;2023-02-01T11:24:59;5.22;76.15
22069;DHT22;13887;57.196;-2.100;2023-02-01T11:27:28;5.24;76.21
22069;DHT22;13887;57.196;-2.100;2023-02-01T11:29:59;5.26;76.05
22069;DHT22;13887;57.196;-2.100;2023-02-01T11:32:28;5.26;76.13
22069;DHT22;13887;57.196;-2.100;2023-02-01T11:35:04;5.25;75.96
22069;DHT22;13887;57.196;-2.100;2023-02-01T11:37:36;5.25;76.21
22069;DHT22;13887;57.196;-2.100;2023-02-01T11:40:25;5.26;76.19
22069;DHT22;13887;57.196;-2.100;2023-02-01T11:42:56;5.27;75.85
22069;DHT22;13887;57.196;-2.100;2023-02-01T11:45:31;5.28;75.87
22069;DHT22;13887;57.196;-2.100;2023-02-01T11:48:01;5.31;75.61
22069;DHT22;13887;57.196;-2.100;2023-02-01T11:50:34;5.32;75.47
22069;DHT22;13887;57.196;-2.100;2023-02-01T11:56:04;5.36;73.56
22069;DHT22;13887;57.196;-2.100;2023-02-01T12:43:25;5.49;74.67
22069;DHT22;13887;57.196;-2.100;2023-02-01T12:46:08;5.47;75.38
22069;DHT22;13887;57.196;-2.100;2023-02-01T12:48:58;5.49;75.23
22069;DHT22;13887;57.196;-2.100;2023-02-01T12:51:34;5.49;74.76
22069;DHT22;13887;57.196;-2.100;2023-02-01T12:59:31;5.53;74.81
22069;DHT22;13887;57.196;-2.100;2023-02-01T13:07:45;5.61;73.63
22069;DHT22;13887;57.196;-2.100;2023-02-01T13:19:24;5.62;74.49
22069;DHT22;13887;57.196;-2.100;2023-02-01T13:22:00;5.61;74.35
22069;DHT22;13887;57.196;-2.100;2023-02-01T13:24:44;5.60;74.64
22069;DHT22;13887;57.196;-2.100;2023-02-01T13:27:13;5.63;74.43
22069;DHT22;13887;57.196;-2.100;2023-02-01T13:30:02;5.62;74.66
22069;DHT22;13887;57.196;-2.100;2023-02-01T13:41:50;5.67;73.90
22069;DHT22;13887;57.196;-2.100;2023-02-01T13:43:59;5.65;74.05
22069;DHT22;13887;57.196;-2.100;2023-02-01T13:46:28;5.67;74.15
22069;DHT22;13887;57.196;-2.100;2023-02-01T13:48:59;5.67;74.62
22069;DHT22;13887;57.196;-2.100;2023-02-01T13:51:43;5.68;74.61
22069;DHT22;13887;57.196;-2.100;2023-02-01T13:54:32;5.68;74.56
22069;DHT22;13887;57.196;-2.100;2023-02-01T13:57:00;5.68;74.22
22069;DHT22;13887;57.196;-2.100;2023-02-01T14:13:25;5.69;73.98
22069;DHT22;13887;57.196;-2.100;2023-02-01T14:21:33;5.68;74.26
22069;DHT22;13887;57.196;-2.100;2023-02-01T14:24:23;5.70;74.31
22069;DHT22;13887;57.196;-2.100;2023-02-01T14:26:55;5.72;74.16
22069;DHT22;13887;57.196;-2.100;2023-02-01T14:29:33;5.70;74.46
22069;DHT22;13887;57.196;-2.100;2023-02-01T14:32:21;5.67;74.39
22069;DHT22;13887;57.196;-2.100;2023-02-01T14:34:54;5.68;74.64
22069;DHT22;13887;57.196;-2.100;2023-02-01T14:37:27;5.69;74.34
22069;DHT22;13887;57.196;-2.100;2023-02-01T14:40:05;5.70;73.86
22069;DHT22;13887;57.196;-2.100;2023-02-01T15:01:03;5.69;72.99
22069;DHT22;13887;57.196;-2.100;2023-02-01T15:06:54;5.68;73.24
22069;DHT22;13887;57.196;-2.100;2023-02-01T15:09:28;5.68;73.56
22069;DHT22;13887;57.196;-2.100;2023-02-01T15:17:22;5.71;73.42
22069;DHT22;13887;57.196;-2.100;2023-02-01T15:19:57;5.70;73.58
22069;DHT22;13887;57.196;-2.100;2023-02-01T15:22:26;5.72;73.36
22069;DHT22;13887;57.196;-2.100;2023-02-01T15:24:56;5.71;73.20
22069;DHT22;13887;57.196;-2.100;2023-02-01T15:27:24;5.69;73.59
22069;DHT22;13887;57.196;-2.100;2023-02-01T15:29:51;5.69;74.02
22069;DHT22;13887;57.196;-2.100;2023-02-01T15:32:33;5.68;74.33
22069;DHT22;13887;57.196;-2.100;2023-02-01T15:35:00;5.71;73.75
22069;DHT22;13887;57.196;-2.100;2023-02-01T15:37:29;5.69;73.96
22069;DHT22;13887;57.196;-2.100;2023-02-01T15:42:53;5.70;73.73
22069;DHT22;13887;57.196;-2.100;2023-02-01T15:45:25;5.72;73.99
22069;DHT22;13887;57.196;-2.100;2023-02-01T15:47:55;5.70;73.79
22069;DHT22;13887;57.196;-2.100;2023-02-01T15:50:23;5.67;73.83
22069;DHT22;13887;57.196;-2.100;2023-02-01T15:52:53;5.70;73.90
22069;DHT22;13887;57.196;-2.100;2023-02-01T15:55:38;5.70;73.90
22069;DHT22;13887;57.196;-2.100;2023-02-01T15:58:18;5.68;74.07
22069;DHT22;13887;57.196;-2.100;2023-02-01T16:00:47;5.68;73.73
22069;DHT22;13887;57.196;-2.100;2023-02-01T16:03:35;5.67;73.68
22069;DHT22;13887;57.196;-2.100;2023-02-01T16:08:35;5.66;74.06
22069;DHT22;13887;57.196;-2.100;2023-02-01T16:13:36;5.64;74.63
22069;DHT22;13887;57.196;-2.100;2023-02-01T16:16:03;5.62;74.59
22069;DHT22;13887;57.196;-2.100;2023-02-01T16:18:34;5.63;74.71
22069;DHT22;13887;57.196;-2.100;2023-02-01T16:21:01;5.63;74.99
22069;DHT22;13887;57.196;-2.100;2023-02-01T16:23:29;5.62;75.09
22069;DHT22;13887;57.196;-2.100;2023-02-01T16:25:58;5.61;74.72
22069;DHT22;13887;57.196;-2.100;2023-02-01T16:28:25;5.59;74.83
22069;DHT22;13887;57.196;-2.100;2023-02-01T16:30:52;5.55;75.12
22069;DHT22;13887;57.196;-2.100;2023-02-01T16:33:20;5.54;75.01
22069;DHT22;13887;57.196;-2.100;2023-02-01T16:35:52;5.54;75.05
22069;DHT22;13887;57.196;-2.100;2023-02-01T16:38:23;5.55;75.02
22069;DHT22;13887;57.196;-2.100;2023-02-01T16:40:50;5.54;75.42
22069;DHT22;13887;57.196;-2.100;2023-02-01T16:43:20;5.54;75.53
22069;DHT22;13887;57.196;-2.100;2023-02-01T16:45:48;5.54;75.85
22069;DHT22;13887;57.196;-2.100;2023-02-01T16:48:33;5.52;76.02
22069;DHT22;13887;57.196;-2.100;2023-02-01T16:51:04;5.54;75.90
22069;DHT22;13887;57.196;-2.100;2023-02-01T16:53:35;5.52;76.15
22069;DHT22;13887;57.196;-2.100;2023-02-01T16:56:23;5.51;76.19
22069;DHT22;13887;57.196;-2.100;2023-02-01T16:58:50;5.51;76.35
22069;DHT22;13887;57.196;-2.100;2023-02-01T17:01:18;5.52;76.57
22069;DHT22;13887;57.196;-2.100;2023-02-01T17:03:46;5.51;76.74
22069;DHT22;13887;57.196;-2.100;2023-02-01T17:06:18;5.49;76.50
22069;DHT22;13887;57.196;-2.100;2023-02-01T17:08:54;5.49;76.77
22069;DHT22;13887;57.196;-2.100;2023-02-01T17:11:21;5.47;76.81
22069;DHT22;13887;57.196;-2.100;2023-02-01T17:13:48;5.48;76.76
22069;DHT22;13887;57.196;-2.100;2023-02-01T17:19:10;5.45;76.98
22069;DHT22;13887;57.196;-2.100;2023-02-01T17:21:42;5.46;76.81
22069;DHT22;13887;57.196;-2.100;2023-02-01T17:24:12;5.45;77.24
22069;DHT22;13887;57.196;-2.100;2023-02-01T17:26:42;5.46;77.12
22069;DHT22;13887;57.196;-2.100;2023-02-01T17:29:10;5.41;77.27
22069;DHT22;13887;57.196;-2.100;2023-02-01T17:31:43;5.43;77.20
22069;DHT22;13887;57.196;-2.100;2023-02-01T17:34:11;5.16;77.60
22069;DHT22;13887;57.196;-2.100;2023-02-01T17:36:41;5.39;77.40
22069;DHT22;13887;57.196;-2.100;2023-02-01T17:39:09;5.47;77.43
22069;DHT22;13887;57.196;-2.100;2023-02-01T17:41:36;5.47;77.43
22069;DHT22;13887;57.196;-2.100;2023-02-01T17:44:04;5.45;77.29
22069;DHT22;13887;57.196;-2.100;2023-02-01T17:46:31;5.46;77.37
22069;DHT22;13887;57.196;-2.100;2023-02-01T17:48:58;5.43;77.36
22069;DHT22;13887;57.196;-2.100;2023-02-01T17:51:27;5.43;77.59
22069;DHT22;13887;57.196;-2.100;2023-02-01T17:53:55;5.45;77.37
22069;DHT22;13887;57.196;-2.100;2023-02-01T17:56:24;5.46;77.36
22069;DHT22;13887;57.196;-2.100;2023-02-01T17:58:51;5.45;77.39
22069;DHT22;13887;57.196;-2.100;2023-02-01T18:01:22;5.45;77.43
22069;DHT22;13887;57.196;-2.100;2023-02-01T18:03:50;5.41;77.65
22069;DHT22;13887;57.196;-2.100;2023-02-01T18:06:19;5.45;77.45
22069;DHT22;13887;57.196;-2.100;2023-02-01T18:08:47;5.43;77.46
22069;DHT22;13887;57.196;-2.100;2023-02-01T18:11:17;5.42;77.56
22069;DHT22;13887;57.196;-2.100;2023-02-01T18:13:45;5.41;77.89
22069;DHT22;13887;57.196;-2.100;2023-02-01T18:16:20;5.43;77.72
22069;DHT22;13887;57.196;-2.100;2023-02-01T18:18:48;5.42;77.76
22069;DHT22;13887;57.196;-2.100;2023-02-01T18:21:17;5.42;77.67
22069;DHT22;13887;57.196;-2.100;2023-02-01T18:23:44;5.40;77.76
22069;DHT22;13887;57.196;-2.100;2023-02-01T18:26:14;5.42;77.81
22069;DHT22;13887;57.196;-2.100;2023-02-01T18:28:42;5.42;77.95
22069;DHT22;13887;57.196;-2.100;2023-02-01T18:31:24;5.41;77.92
22069;DHT22;13887;57.196;-2.100;2023-02-01T18:33:54;5.43;77.92
22069;DHT22;13887;57.196;-2.100;2023-02-01T18:36:22;5.41;77.92
22069;DHT22;13887;57.196;-2.100;2023-02-01T18:38:49;5.41;77.96
22069;DHT22;13887;57.196;-2.100;2023-02-01T18:41:20;5.42;78.10
22069;DHT22;13887;57.196;-2.100;2023-02-01T18:43:50;5.40;78.18
22069;DHT22;13887;57.196;-2.100;2023-02-01T18:46:18;5.39;78.38
22069;DHT22;13887;57.196;-2.100;2023-02-01T18:48:47;5.41;78.46
22069;DHT22;13887;57.196;-2.100;2023-02-01T18:51:18;5.41;78.40
22069;DHT22;13887;57.196;-2.100;2023-02-01T18:53:46;5.41;78.50
22069;DHT22;13887;57.196;-2.100;2023-02-01T18:56:15;5.40;78.78
22069;DHT22;13887;57.196;-2.100;2023-02-01T18:58:44;5.40;78.87
22069;DHT22;13887;57.196;-2.100;2023-02-01T19:01:17;5.38;79.23
22069;DHT22;13887;57.196;-2.100;2023-02-01T19:03:46;5.39;79.21
22069;DHT22;13887;57.196;-2.100;2023-02-01T19:06:26;5.39;78.90
22069;DHT22;13887;57.196;-2.100;2023-02-01T19:08:52;5.40;79.42